createdAt,value
2023-12-29T00:00:45.870Z,2.97
2023-12-29T00:03:12.844Z,7.75
2023-12-29T00:05:39.791Z,8.68
2023-12-29T00:08:07.118Z,4.95
2023-12-29T00:10:34.091Z,10.77
2023-12-29T00:13:01.111Z,4.55
2023-12-29T00:15:28.432Z,4.68
2023-12-29T00:17:55.593Z,9.20
2023-12-29T00:20:29.395Z,7.60
2023-12-29T00:23:04.909Z,3.78
2023-12-29T00:25:31.742Z,4.30
2023-12-29T00:27:58.783Z,4.57
2023-12-29T00:30:35.424Z,3.33
2023-12-29T00:33:10.643Z,2.95
2023-12-29T00:35:40.914Z,4.78
2023-12-29T00:38:07.839Z,5.40
2023-12-29T00:40:34.720Z,5.00
2023-12-29T00:43:02.370Z,4.25
2023-12-29T00:45:34.695Z,5.05
2023-12-29T00:48:01.921Z,12.10
2023-12-29T00:50:29.547Z,3.42
2023-12-29T00:52:56.543Z,8.10
2023-12-29T00:55:23.679Z,9.57
2023-12-29T00:57:50.512Z,6.55
2023-12-29T01:00:17.483Z,5.45
2023-12-29T01:02:44.388Z,7.80
2023-12-29T01:05:11.436Z,6.88
2023-12-29T01:07:38.433Z,5.03
2023-12-29T01:10:05.978Z,6.80
2023-12-29T01:12:33.332Z,6.90
2023-12-29T01:15:00.257Z,7.40
2023-12-29T01:17:29.100Z,4.90
2023-12-29T01:19:56.245Z,4.78
2023-12-29T01:22:23.267Z,6.15
2023-12-29T01:24:50.278Z,5.32
2023-12-29T01:27:17.211Z,5.82
2023-12-29T01:29:44.053Z,6.03
2023-12-29T01:32:11.923Z,5.20
2023-12-29T01:34:39.001Z,9.80
2023-12-29T01:37:06.171Z,5.00
2023-12-29T01:39:34.536Z,6.93
2023-12-29T01:42:01.526Z,4.65
2023-12-29T01:44:28.478Z,3.70
2023-12-29T01:46:56.473Z,4.75
2023-12-29T01:49:23.653Z,6.40
2023-12-29T01:51:55.836Z,7.82
2023-12-29T01:54:23.105Z,6.35
2023-12-29T01:56:50.143Z,2.45
2023-12-29T01:59:25.268Z,4.50
2023-12-29T02:01:57.642Z,7.88
2023-12-29T02:04:26.102Z,8.00
2023-12-29T02:06:53.275Z,6.75
2023-12-29T02:09:20.213Z,8.27
2023-12-29T02:11:47.484Z,7.57
2023-12-29T02:14:17.754Z,5.25
2023-12-29T02:17:06.756Z,8.32
2023-12-29T02:19:45.658Z,10.32
2023-12-29T02:22:13.443Z,4.80
2023-12-29T02:24:40.825Z,6.82
2023-12-29T02:27:24.433Z,9.38
2023-12-29T02:30:10.392Z,6.15
2023-12-29T02:32:39.140Z,10.93
2023-12-29T02:35:08.605Z,4.80
2023-12-29T02:37:36.931Z,7.72
2023-12-29T02:40:04.212Z,6.00
2023-12-29T02:42:31.464Z,7.90
2023-12-29T02:44:58.438Z,4.25
2023-12-29T02:47:25.448Z,9.02
2023-12-29T02:49:52.693Z,6.38
2023-12-29T02:52:19.570Z,7.10
2023-12-29T02:54:46.603Z,11.32
2023-12-29T02:57:13.579Z,7.38
2023-12-29T02:59:40.417Z,8.82
2023-12-29T03:02:07.307Z,8.75
2023-12-29T03:04:34.358Z,6.32
2023-12-29T03:07:01.360Z,8.10
2023-12-29T03:09:28.202Z,9.20
2023-12-29T03:11:55.102Z,6.65
2023-12-29T03:14:22.786Z,5.13
2023-12-29T03:16:49.697Z,11.48
2023-12-29T03:19:16.664Z,10.73
2023-12-29T03:21:43.645Z,8.85
2023-12-29T03:24:11.122Z,6.85
2023-12-29T03:26:37.949Z,10.90
2023-12-29T03:29:04.887Z,10.38
2023-12-29T03:31:31.861Z,8.75
2023-12-29T03:33:58.903Z,6.22
2023-12-29T03:36:25.919Z,7.63
2023-12-29T03:38:52.818Z,11.82
2023-12-29T03:41:20.089Z,5.15
2023-12-29T03:43:47.048Z,6.93
2023-12-29T03:46:20.666Z,6.20
2023-12-29T03:48:47.867Z,6.20
2023-12-29T03:51:15.259Z,8.60
2023-12-29T03:53:42.195Z,19.00
2023-12-29T03:56:09.899Z,8.25
2023-12-29T03:58:36.847Z,9.18
2023-12-29T04:01:03.818Z,11.07
2023-12-29T04:03:30.971Z,8.32
2023-12-29T04:05:57.944Z,6.45
2023-12-29T04:08:24.845Z,16.98
2023-12-29T04:10:51.770Z,8.13
2023-12-29T04:13:18.706Z,9.43
2023-12-29T04:15:45.574Z,10.98
2023-12-29T04:18:12.614Z,10.45
2023-12-29T04:20:40.104Z,10.13
2023-12-29T04:23:07.819Z,16.30
2023-12-29T04:25:35.107Z,14.02
2023-12-29T04:28:02.313Z,13.55
2023-12-29T04:30:29.590Z,14.10
2023-12-29T04:32:56.851Z,12.23
2023-12-29T04:35:24.575Z,13.85
2023-12-29T04:37:52.211Z,9.98
2023-12-29T04:40:22.357Z,11.00
2023-12-29T04:42:49.348Z,9.70
2023-12-29T04:45:16.324Z,12.05
2023-12-29T04:47:43.591Z,12.38
2023-12-29T04:50:10.508Z,15.00
2023-12-29T04:52:37.541Z,14.38
2023-12-29T04:55:04.770Z,15.80
2023-12-29T04:57:31.941Z,12.85
2023-12-29T04:59:58.890Z,17.30
2023-12-29T05:02:25.760Z,16.38
2023-12-29T05:04:52.708Z,21.80
2023-12-29T05:07:19.932Z,13.93
2023-12-29T05:09:46.919Z,17.27
2023-12-29T05:12:13.784Z,16.23
2023-12-29T05:14:40.718Z,20.10
2023-12-29T05:17:09.661Z,12.02
2023-12-29T05:19:36.844Z,18.02
2023-12-29T05:22:04.025Z,18.13
2023-12-29T05:24:31.107Z,17.10
2023-12-29T05:26:57.970Z,19.98
2023-12-29T05:29:24.856Z,17.00
2023-12-29T05:31:51.859Z,22.10
2023-12-29T05:34:18.945Z,16.88
2023-12-29T05:36:48.112Z,19.33
2023-12-29T05:39:16.834Z,18.45
2023-12-29T05:41:43.691Z,17.95
2023-12-29T05:44:10.808Z,15.30
2023-12-29T05:46:37.848Z,20.70
2023-12-29T05:49:04.917Z,13.05
2023-12-29T05:51:31.936Z,17.33
2023-12-29T05:53:58.896Z,18.25
2023-12-29T05:56:26.492Z,21.10
2023-12-29T05:58:53.696Z,19.38
2023-12-29T06:01:20.927Z,20.67
2023-12-29T06:03:48.063Z,17.77
2023-12-29T06:06:14.980Z,17.95
2023-12-29T06:08:41.957Z,21.02
2023-12-29T06:11:08.937Z,22.02
2023-12-29T06:13:35.880Z,22.27
2023-12-29T06:16:02.791Z,16.15
2023-12-29T06:18:30.119Z,24.77
2023-12-29T06:20:57.118Z,19.73
2023-12-29T06:23:24.211Z,17.40
2023-12-29T06:25:51.591Z,14.98
2023-12-29T06:28:18.584Z,18.88
2023-12-29T06:30:45.903Z,17.52
2023-12-29T06:33:13.061Z,20.02
2023-12-29T06:35:40.314Z,21.20
2023-12-29T06:38:07.331Z,24.33
2023-12-29T06:40:34.426Z,16.73
2023-12-29T06:43:01.321Z,22.95
2023-12-29T06:45:28.265Z,20.17
2023-12-29T06:47:55.257Z,20.15
2023-12-29T06:50:22.325Z,21.38
2023-12-29T06:52:49.217Z,23.70
2023-12-29T06:55:16.138Z,20.65
2023-12-29T06:57:43.020Z,17.23
2023-12-29T07:00:10.155Z,17.60
2023-12-29T07:02:41.266Z,21.45
2023-12-29T07:05:08.409Z,16.38
2023-12-29T07:07:36.783Z,19.40
2023-12-29T07:10:05.010Z,23.80
2023-12-29T07:12:32.234Z,24.33
2023-12-29T07:14:59.243Z,25.33
2023-12-29T07:17:26.168Z,21.17
2023-12-29T07:19:53.204Z,26.67
2023-12-29T07:22:20.086Z,22.63
2023-12-29T07:24:47.142Z,26.48
2023-12-29T07:27:14.005Z,27.70
2023-12-29T07:29:40.918Z,30.45
2023-12-29T07:32:08.073Z,30.63
2023-12-29T07:34:35.481Z,28.83
2023-12-29T07:37:02.996Z,27.90
2023-12-29T07:39:30.336Z,27.95
2023-12-29T07:41:57.205Z,27.90
2023-12-29T07:44:24.172Z,30.60
2023-12-29T07:46:51.100Z,24.38
2023-12-29T07:49:18.147Z,22.85
2023-12-29T07:51:47.365Z,23.00
2023-12-29T07:54:14.245Z,22.40
2023-12-29T07:56:41.186Z,23.15
2023-12-29T07:59:08.181Z,32.58
2023-12-29T08:01:35.372Z,29.85
2023-12-29T08:04:02.528Z,25.67
2023-12-29T08:06:29.765Z,29.05
2023-12-29T08:08:56.783Z,23.15
2023-12-29T08:11:23.740Z,27.70
2023-12-29T08:13:50.732Z,27.75
2023-12-29T08:16:20.689Z,31.05
2023-12-29T08:18:51.034Z,27.27
2023-12-29T08:21:20.049Z,22.30
2023-12-29T08:23:48.181Z,27.48
2023-12-29T08:26:15.247Z,31.90
2023-12-29T08:28:42.304Z,22.17
2023-12-29T08:31:09.589Z,25.80
2023-12-29T08:33:36.794Z,22.75
2023-12-29T08:36:05.097Z,26.77
2023-12-29T08:38:35.167Z,24.63
2023-12-29T08:41:02.138Z,32.78
2023-12-29T08:43:29.242Z,23.83
2023-12-29T08:45:56.280Z,32.10
2023-12-29T08:48:23.703Z,25.48
2023-12-29T08:50:50.680Z,23.08
2023-12-29T08:53:18.345Z,25.92
2023-12-29T08:55:45.560Z,27.02
2023-12-29T08:58:13.373Z,29.13
2023-12-29T09:00:40.430Z,26.58
2023-12-29T09:03:07.616Z,29.42
2023-12-29T09:05:34.631Z,25.42
2023-12-29T09:08:01.724Z,27.20
2023-12-29T09:10:28.781Z,25.27
2023-12-29T09:12:55.788Z,25.80
2023-12-29T09:15:22.749Z,34.65
2023-12-29T09:17:49.699Z,28.52
2023-12-29T09:20:17.672Z,34.70
2023-12-29T09:22:44.725Z,23.75
2023-12-29T09:25:11.770Z,29.60
2023-12-29T09:27:38.865Z,29.80
2023-12-29T09:30:06.456Z,27.42
2023-12-29T09:32:36.312Z,29.95
2023-12-29T09:35:04.544Z,26.88
2023-12-29T09:37:31.588Z,23.55
2023-12-29T09:39:58.523Z,26.70
2023-12-29T09:42:25.459Z,26.17
2023-12-29T09:44:52.882Z,24.30
2023-12-29T09:47:26.333Z,23.17
2023-12-29T09:49:56.425Z,23.23
2023-12-29T09:52:24.101Z,20.70
2023-12-29T09:54:52.177Z,25.33
2023-12-29T09:57:19.499Z,19.77
2023-12-29T09:59:46.416Z,20.08
2023-12-29T10:02:17.173Z,19.95
2023-12-29T10:04:44.182Z,16.35
2023-12-29T10:07:14.304Z,20.88
2023-12-29T10:09:41.207Z,20.85
2023-12-29T10:12:10.361Z,18.67
2023-12-29T10:14:42.842Z,19.20
2023-12-29T10:17:23.110Z,25.67
2023-12-29T10:20:01.429Z,21.05
2023-12-29T10:22:35.912Z,17.52
2023-12-29T10:25:02.756Z,22.02
2023-12-29T10:27:30.219Z,21.27
2023-12-29T10:29:57.178Z,17.48
2023-12-29T10:32:24.515Z,18.70
2023-12-29T10:34:51.432Z,18.08
2023-12-29T10:37:23.569Z,27.95
2023-12-29T10:39:56.846Z,24.17
2023-12-29T10:42:23.843Z,20.50
2023-12-29T10:44:54.345Z,26.27
2023-12-29T10:47:21.336Z,20.27
2023-12-29T10:49:49.122Z,21.20
2023-12-29T10:52:16.592Z,18.88
2023-12-29T10:54:44.187Z,17.73
2023-12-29T10:57:13.015Z,17.75
2023-12-29T10:59:40.309Z,19.17
2023-12-29T11:02:09.477Z,27.58
2023-12-29T11:04:36.647Z,22.42
2023-12-29T11:07:04.059Z,20.05
2023-12-29T11:09:32.650Z,16.23
2023-12-29T11:12:04.321Z,15.65
2023-12-29T11:14:31.759Z,16.17
2023-12-29T11:16:59.915Z,22.88
2023-12-29T11:19:27.872Z,19.60
2023-12-29T11:21:58.118Z,25.30
2023-12-29T11:24:31.046Z,22.05
2023-12-29T11:27:06.270Z,24.15
2023-12-29T11:29:33.085Z,19.73
2023-12-29T11:32:00.119Z,20.00
2023-12-29T11:34:38.852Z,18.38
2023-12-29T11:37:18.757Z,22.25
2023-12-29T11:40:05.894Z,15.98
2023-12-29T11:42:35.671Z,20.27
2023-12-29T11:45:38.123Z,17.58
2023-12-29T11:48:05.991Z,16.55
2023-12-29T11:50:34.518Z,17.80
2023-12-29T11:53:01.698Z,20.70
2023-12-29T11:55:36.617Z,17.92
2023-12-29T11:58:06.203Z,21.23
2023-12-29T12:00:47.721Z,27.35
2023-12-29T12:03:15.887Z,17.98
2023-12-29T12:05:47.272Z,18.17
2023-12-29T12:08:30.819Z,22.45
2023-12-29T12:10:58.623Z,27.13
2023-12-29T12:13:54.927Z,35.15
2023-12-29T12:16:47.340Z,23.35
2023-12-29T12:19:14.712Z,22.55
2023-12-29T12:21:42.196Z,19.90
2023-12-29T12:24:09.377Z,24.73
2023-12-29T12:26:36.660Z,18.20
2023-12-29T12:29:03.595Z,19.02
2023-12-29T12:31:30.522Z,22.45
2023-12-29T12:33:57.835Z,22.48
2023-12-29T12:36:24.949Z,27.38
2023-12-29T12:38:55.168Z,26.92
2023-12-29T12:41:25.353Z,24.30
2023-12-29T12:44:14.501Z,26.42
2023-12-29T12:47:07.215Z,22.55
2023-12-29T12:49:34.649Z,31.83
2023-12-29T12:52:01.641Z,31.20
2023-12-29T12:54:28.883Z,34.03
2023-12-29T12:56:55.777Z,41.22
2023-12-29T12:59:23.074Z,37.40
2023-12-29T13:01:50.393Z,41.47
2023-12-29T13:04:18.167Z,32.45
2023-12-29T13:06:47.526Z,28.60
2023-12-29T13:09:20.382Z,34.97
2023-12-29T13:11:47.852Z,28.38
2023-12-29T13:14:22.642Z,31.92
2023-12-29T13:16:50.394Z,35.88
2023-12-29T13:19:21.451Z,39.72
2023-12-29T13:21:56.506Z,39.65
2023-12-29T13:24:24.117Z,35.78
2023-12-29T13:26:56.044Z,49.83
2023-12-29T13:29:25.406Z,41.65
2023-12-29T13:31:59.283Z,33.67
2023-12-29T13:34:53.557Z,34.38
2023-12-29T13:37:23.437Z,34.75
2023-12-29T13:39:59.347Z,29.50
2023-12-29T13:42:27.151Z,36.63
2023-12-29T13:44:54.407Z,32.47
2023-12-29T13:47:22.560Z,33.28
2023-12-29T13:49:50.058Z,31.23
2023-12-29T13:52:19.182Z,34.13
2023-12-29T13:54:46.561Z,36.10
2023-12-29T13:57:13.833Z,41.25
2023-12-29T13:59:41.203Z,34.33
2023-12-29T14:02:27.474Z,35.20
2023-12-29T14:05:19.776Z,26.70
2023-12-29T14:07:53.827Z,27.08
2023-12-29T14:10:23.994Z,30.85
2023-12-29T14:12:51.266Z,36.33
2023-12-29T14:15:18.436Z,35.60
2023-12-29T14:17:45.592Z,29.50
2023-12-29T14:20:13.185Z,28.00
2023-12-29T14:22:40.102Z,33.50
2023-12-29T14:25:09.067Z,31.48
2023-12-29T14:27:36.537Z,38.40
2023-12-29T14:30:03.709Z,38.25
2023-12-29T14:32:32.556Z,33.30
2023-12-29T14:34:59.833Z,34.67
2023-12-29T14:37:27.047Z,27.52
2023-12-29T14:39:54.155Z,49.65
2023-12-29T14:42:21.406Z,36.53
2023-12-29T14:44:49.130Z,33.42
2023-12-29T14:47:16.502Z,36.08
2023-12-29T14:49:43.959Z,33.75
2023-12-29T14:52:11.875Z,34.35
2023-12-29T14:54:40.288Z,40.03
2023-12-29T14:57:11.520Z,34.63
2023-12-29T14:59:42.583Z,38.33
2023-12-29T15:02:09.430Z,41.53
2023-12-29T15:04:36.884Z,46.78
2023-12-29T15:07:04.126Z,36.90
2023-12-29T15:09:36.946Z,32.15
2023-12-29T15:12:05.990Z,34.55
2023-12-29T15:14:32.987Z,39.30
2023-12-29T15:17:00.152Z,40.97
2023-12-29T15:19:27.106Z,42.45
2023-12-29T15:21:55.095Z,43.17
2023-12-29T15:24:22.267Z,30.33
2023-12-29T15:26:49.472Z,35.28
2023-12-29T15:29:16.491Z,35.22
2023-12-29T15:31:45.438Z,42.45
2023-12-29T15:34:12.479Z,42.08
2023-12-29T15:36:39.907Z,34.20
2023-12-29T15:39:07.087Z,34.95
2023-12-29T15:41:34.674Z,35.55
2023-12-29T15:44:04.587Z,35.38
2023-12-29T15:46:31.913Z,39.92
2023-12-29T15:49:02.387Z,34.60
2023-12-29T15:51:30.937Z,35.53
2023-12-29T15:53:57.819Z,43.22
2023-12-29T15:56:25.109Z,37.92
2023-12-29T15:58:51.998Z,45.92
2023-12-29T16:01:27.672Z,47.47
2023-12-29T16:03:55.290Z,38.25
2023-12-29T16:06:26.783Z,38.63
2023-12-29T16:08:55.374Z,34.88
2023-12-29T16:11:27.077Z,45.00
2023-12-29T16:13:54.152Z,42.53
2023-12-29T16:16:22.038Z,40.40
2023-12-29T16:18:49.410Z,31.70
2023-12-29T16:21:16.402Z,36.60
2023-12-29T16:23:43.308Z,49.10
2023-12-29T16:26:10.323Z,40.92
2023-12-29T16:28:37.634Z,46.03
2023-12-29T16:31:11.445Z,34.72
2023-12-29T16:33:39.297Z,35.00
2023-12-29T16:36:13.556Z,35.15
2023-12-29T16:38:48.772Z,32.05
2023-12-29T16:41:16.116Z,42.72
2023-12-29T16:43:43.071Z,39.05
2023-12-29T16:46:10.384Z,50.30
2023-12-29T16:48:37.632Z,44.75
2023-12-29T16:51:07.867Z,50.03
2023-12-29T16:53:36.289Z,45.50
2023-12-29T16:56:04.117Z,47.38
2023-12-29T16:58:32.186Z,50.50
2023-12-29T17:01:01.325Z,51.17
2023-12-29T17:03:32.129Z,44.08
2023-12-29T17:05:59.813Z,39.88
2023-12-29T17:08:27.046Z,44.03
2023-12-29T17:10:53.977Z,49.63
2023-12-29T17:13:21.074Z,45.88
2023-12-29T17:15:48.497Z,51.30
2023-12-29T17:18:16.222Z,42.58
2023-12-29T17:20:43.562Z,42.63
2023-12-29T17:23:10.428Z,50.92
2023-12-29T17:25:46.325Z,42.08
2023-12-29T17:28:17.727Z,47.22
2023-12-29T17:30:45.089Z,43.92
2023-12-29T17:33:12.460Z,58.38
2023-12-29T17:35:40.142Z,48.30
2023-12-29T17:38:07.501Z,42.22
2023-12-29T17:40:34.517Z,47.20
2023-12-29T17:43:04.294Z,49.55
2023-12-29T17:45:31.741Z,59.35
2023-12-29T17:47:58.927Z,47.60
2023-12-29T17:50:26.141Z,42.50
2023-12-29T17:52:53.059Z,42.95
2023-12-29T17:55:20.392Z,33.30
2023-12-29T17:57:47.219Z,37.75
2023-12-29T18:00:14.553Z,42.20
2023-12-29T18:02:41.586Z,62.75
2023-12-29T18:05:08.882Z,54.72
2023-12-29T18:07:35.922Z,48.40
2023-12-29T18:10:05.016Z,43.85
2023-12-29T18:12:32.417Z,50.50
2023-12-29T18:14:59.344Z,37.63
2023-12-29T18:17:26.793Z,56.15
2023-12-29T18:19:54.150Z,48.50
2023-12-29T18:22:21.585Z,41.85
2023-12-29T18:24:48.659Z,51.83
2023-12-29T18:27:16.789Z,60.95
2023-12-29T18:29:45.447Z,55.95
2023-12-29T18:32:19.826Z,61.97
2023-12-29T18:34:52.879Z,61.30
2023-12-29T18:37:20.873Z,66.72
2023-12-29T18:39:48.712Z,69.40
2023-12-29T18:42:16.580Z,60.95
2023-12-29T18:44:43.904Z,58.42
2023-12-29T18:47:12.156Z,38.50
2023-12-29T18:49:39.565Z,55.65
2023-12-29T18:52:07.072Z,59.20
2023-12-29T18:54:34.697Z,54.40
2023-12-29T18:57:02.604Z,43.38
2023-12-29T18:59:30.250Z,67.63
2023-12-29T19:01:58.486Z,59.45
2023-12-29T19:04:26.141Z,44.03
2023-12-29T19:06:53.459Z,48.15
2023-12-29T19:09:20.741Z,43.92
2023-12-29T19:11:47.805Z,63.30
2023-12-29T19:14:14.900Z,44.85
2023-12-29T19:16:42.137Z,33.60
2023-12-29T19:19:09.793Z,44.63
2023-12-29T19:21:45.175Z,44.60
2023-12-29T19:24:12.946Z,49.03
2023-12-29T19:26:39.879Z,44.92
2023-12-29T19:29:07.102Z,41.03
2023-12-29T19:31:35.251Z,47.42
2023-12-29T19:34:03.644Z,41.92
2023-12-29T19:36:31.617Z,35.83
2023-12-29T19:38:58.525Z,40.67
2023-12-29T19:41:30.437Z,37.13
2023-12-29T19:43:57.423Z,28.27
2023-12-29T19:46:25.311Z,39.20
2023-12-29T19:48:54.217Z,27.52
2023-12-29T19:51:21.562Z,39.25
2023-12-29T19:53:48.784Z,29.55
2023-12-29T19:56:26.186Z,28.23
2023-12-29T19:58:54.531Z,29.63
2023-12-29T20:01:24.524Z,28.23
2023-12-29T20:03:51.979Z,42.43
2023-12-29T20:06:23.858Z,33.08
2023-12-29T20:08:51.675Z,34.10
2023-12-29T20:11:21.222Z,40.78
2023-12-29T20:13:48.182Z,37.17
2023-12-29T20:16:23.265Z,29.67
2023-12-29T20:18:53.876Z,32.30
2023-12-29T20:21:22.303Z,31.23
2023-12-29T20:23:49.898Z,34.88
2023-12-29T20:26:21.044Z,33.85
2023-12-29T20:28:48.303Z,30.75
2023-12-29T20:31:28.864Z,28.70
2023-12-29T20:33:56.053Z,36.03
2023-12-29T20:36:23.567Z,27.75
2023-12-29T20:38:55.142Z,25.05
2023-12-29T20:41:23.562Z,28.98
2023-12-29T20:43:55.149Z,29.40
2023-12-29T20:46:23.061Z,24.27
2023-12-29T20:48:51.001Z,26.45
2023-12-29T20:51:21.955Z,28.73
2023-12-29T20:53:50.051Z,26.30
2023-12-29T20:56:17.262Z,28.83
2023-12-29T20:58:45.777Z,29.55
2023-12-29T21:01:13.081Z,25.30
2023-12-29T21:03:41.945Z,27.92
2023-12-29T21:06:09.621Z,21.05
2023-12-29T21:08:36.997Z,24.55
2023-12-29T21:11:04.214Z,21.90
2023-12-29T21:13:31.651Z,24.63
2023-12-29T21:15:58.839Z,30.20
2023-12-29T21:18:25.959Z,20.50
2023-12-29T21:20:53.130Z,25.50
2023-12-29T21:23:20.423Z,19.65
2023-12-29T21:25:47.446Z,20.55
2023-12-29T21:28:14.542Z,17.40
2023-12-29T21:30:42.647Z,23.75
2023-12-29T21:33:09.854Z,20.67
2023-12-29T21:35:37.373Z,17.60
2023-12-29T21:38:04.526Z,22.63
2023-12-29T21:40:31.765Z,17.17
2023-12-29T21:42:59.170Z,20.05
2023-12-29T21:45:27.627Z,21.38
2023-12-29T21:47:54.645Z,18.85
2023-12-29T21:50:21.853Z,25.38
2023-12-29T21:52:48.831Z,18.10
2023-12-29T21:55:15.824Z,16.52
2023-12-29T21:57:42.972Z,21.45
2023-12-29T22:00:13.942Z,23.92
2023-12-29T22:02:41.539Z,22.27
2023-12-29T22:05:11.614Z,27.60
2023-12-29T22:07:38.524Z,26.88
2023-12-29T22:10:06.547Z,24.10
2023-12-29T22:12:33.524Z,25.08
2023-12-29T22:15:01.322Z,20.05
2023-12-29T22:17:28.347Z,23.40
2023-12-29T22:19:56.206Z,19.40
2023-12-29T22:22:23.176Z,24.15
2023-12-29T22:24:51.178Z,20.80
2023-12-29T22:27:18.191Z,19.42
2023-12-29T22:29:45.083Z,16.58
2023-12-29T22:32:12.003Z,20.42
2023-12-29T22:34:39.029Z,29.73
2023-12-29T22:37:06.106Z,22.10
2023-12-29T22:39:32.967Z,25.45
2023-12-29T22:42:00.333Z,26.40
2023-12-29T22:44:27.615Z,23.88
2023-12-29T22:46:54.447Z,22.63
2023-12-29T22:49:21.406Z,19.25
2023-12-29T22:51:48.382Z,27.60
2023-12-29T22:54:15.266Z,20.55
2023-12-29T22:56:42.325Z,32.67
2023-12-29T22:59:09.560Z,20.38
2023-12-29T23:01:36.609Z,24.15
2023-12-29T23:04:03.659Z,18.20
2023-12-29T23:06:33.686Z,23.17
2023-12-29T23:09:00.534Z,26.50
2023-12-29T23:11:27.573Z,22.17
2023-12-29T23:13:54.512Z,31.10
2023-12-29T23:16:21.431Z,29.38
2023-12-29T23:18:48.478Z,27.55
2023-12-29T23:21:15.430Z,18.52
2023-12-29T23:23:42.584Z,17.25
2023-12-29T23:26:09.500Z,22.50
2023-12-29T23:28:36.446Z,24.80
2023-12-29T23:31:04.281Z,21.08
2023-12-29T23:33:31.323Z,30.88
2023-12-29T23:35:58.373Z,24.27
2023-12-29T23:38:25.237Z,18.23
2023-12-29T23:40:53.601Z,18.65
2023-12-29T23:43:20.523Z,26.45
2023-12-29T23:45:47.566Z,22.08
2023-12-29T23:48:14.851Z,23.20
2023-12-29T23:50:41.781Z,28.65
2023-12-29T23:53:08.741Z,19.77
2023-12-29T23:55:35.711Z,23.77
2023-12-29T23:58:02.567Z,19.67
